Darstellungsparameter: Aktuell verwendete Einstellungen:
Skalierung der Graphiken ... ?
xyx+y,   Skalierungsfaktor:      Skalierung: Modus: x, Faktor: 1
Darstellungszeitraum ... ?
Vom - - bis: - -   Zeitraum: 16.01.2022 - 16.01.2022
Min/Max/Avg-Anzeige ... ?
Zeige MMA aktuell
Zeige MMA Monat
Zeige MMA alles
Zeige --A aktuell
Zeige --A Monat
Zeige --A alles
Keine MMA-Anzeige
MMA:
Average (ber die Originaldaten)
MMA-Basis: 16.01.2022 - 16.01.2022
Quicknavigation für Darstellung... ?
Tage:      1T, 2T, 3T, 5T -1T -2T -3T -5T +1T +2T +3T +5T
Wochen: 1W, 2W, 3W -1W -2W -3W +1W +2W +3W
Monate: 1M, 3M, 6M -1M -3M -6M +1M +3M +6M
Jahre:    1J, 3J, 5J, 10J -1J -3J -5J -10J +1J +3J +5J +10J
Nutze für die Darstellung ... ?
Originaldaten oder Mittelwerte auf ...
Stundenbasis Tagesbasis Wochenbasis
Monatsbasis Jahresbasis      Datenbasis: Original-Daten
Darstellen als:
Statistik (Auto) Statistik J:M      Darstellung:
Zur Graphik,    zurück zur Übersicht aller Sensoren.
 
Tabellarische Datenbersicht: ?
 
Sensor: Nr:Datum:Temp:Abs-Feuchte:Windchill:Wind:
Aussen-T/F 1 16-01-2022 00:00:00 2.5 C 5.46 g/m*3 2.5 C 0 km/h
2 16-01-2022 00:05:00 2.5 C 5.46 g/m*3 2.5 C 0 km/h
3 16-01-2022 00:10:00 2.5 C 5.46 g/m*3 2.5 C 0 km/h
4 16-01-2022 00:15:00 2.5 C 5.46 g/m*3 2.5 C 0 km/h
5 16-01-2022 00:20:00 2.4 C 5.42 g/m*3 0.59 C 6.4 km/h
6 16-01-2022 00:25:00 2.4 C 5.42 g/m*3 2.4 C 4.8 km/h
7 16-01-2022 00:30:00 2.4 C 5.42 g/m*3 2.4 C 0 km/h
8 16-01-2022 00:35:00 2.4 C 5.42 g/m*3 2.4 C 0 km/h
9 16-01-2022 00:40:00 2.4 C 5.42 g/m*3 2.4 C 0 km/h
10 16-01-2022 00:45:00 2.4 C 5.42 g/m*3 2.4 C 0 km/h
11 16-01-2022 00:50:00 2.4 C 5.42 g/m*3 2.4 C 3.2 km/h
12 16-01-2022 00:55:00 2.4 C 5.42 g/m*3 2.4 C 3.2 km/h
13 16-01-2022 01:00:00 2.3 C 5.39 g/m*3 2.3 C 3.2 km/h
14 16-01-2022 01:05:00 2.3 C 5.39 g/m*3 2.3 C 0 km/h
15 16-01-2022 01:10:00 2.3 C 5.39 g/m*3 2.3 C 0 km/h
16 16-01-2022 01:15:00 2.3 C 5.39 g/m*3 2.3 C 1.6 km/h
17 16-01-2022 01:20:00 2.3 C 5.39 g/m*3 2.3 C 1.6 km/h
18 16-01-2022 01:25:00 2.3 C 5.39 g/m*3 2.3 C 1.6 km/h
19 16-01-2022 01:30:00 2.3 C 5.39 g/m*3 2.3 C 0 km/h
20 16-01-2022 01:35:00 2.3 C 5.39 g/m*3 2.3 C 0 km/h
21 16-01-2022 01:40:00 2.3 C 5.39 g/m*3 2.3 C 0 km/h
22 16-01-2022 01:45:00 2.3 C 5.39 g/m*3 2.3 C 0 km/h
23 16-01-2022 01:50:00 2.3 C 5.39 g/m*3 2.3 C 3.2 km/h
24 16-01-2022 01:55:00 2.3 C 5.39 g/m*3 2.3 C 3.2 km/h
25 16-01-2022 02:00:00 2.3 C 5.39 g/m*3 2.3 C 4.8 km/h
Sensor: Nr:Datum:Temp:Abs-Feuchte:Windchill:Wind:
Aussen-T/F 26 16-01-2022 02:05:00 2.3 C 5.39 g/m*3 2.3 C 0 km/h
27 16-01-2022 02:10:00 2.3 C 5.39 g/m*3 2.3 C 0 km/h
28 16-01-2022 02:15:00 2.3 C 5.33 g/m*3 2.3 C 0 km/h
29 16-01-2022 02:20:00 2.3 C 5.33 g/m*3 2.3 C 0 km/h
30 16-01-2022 02:25:00 2.3 C 5.33 g/m*3 2.3 C 0 km/h
31 16-01-2022 02:30:00 2.3 C 5.33 g/m*3 2.3 C 1.6 km/h
32 16-01-2022 02:35:00 2.3 C 5.33 g/m*3 2.3 C 3.2 km/h
33 16-01-2022 02:40:00 2.3 C 5.33 g/m*3 2.3 C 1.6 km/h
34 16-01-2022 02:45:00 2.3 C 5.33 g/m*3 2.3 C 0 km/h
35 16-01-2022 02:50:00 2.3 C 5.33 g/m*3 2.3 C 0 km/h
36 16-01-2022 02:55:00 2.3 C 5.33 g/m*3 -0.49 C 9.7 km/h
37 16-01-2022 03:00:00 2.2 C 5.29 g/m*3 -0.61 C 9.7 km/h
38 16-01-2022 03:05:00 2.2 C 5.29 g/m*3 2.2 C 3.2 km/h
39 16-01-2022 03:10:00 2.2 C 5.29 g/m*3 2.2 C 3.2 km/h
40 16-01-2022 03:15:00 2.2 C 5.29 g/m*3 2.2 C 3.2 km/h
41 16-01-2022 03:20:00 2.1 C 5.26 g/m*3 -1.11 C 11.3 km/h
42 16-01-2022 03:25:00 2.1 C 5.2 g/m*3 -1.11 C 11.3 km/h
43 16-01-2022 03:30:00 2 C 5.17 g/m*3 2 C 3.2 km/h
44 16-01-2022 03:35:00 1.9 C 5.13 g/m*3 -0.54 C 8.1 km/h
45 16-01-2022 03:40:00 1.9 C 5.13 g/m*3 -0.54 C 8.1 km/h
46 16-01-2022 03:45:00 1.9 C 5.13 g/m*3 -0.54 C 8.1 km/h
47 16-01-2022 03:50:00 1.9 C 5.13 g/m*3 0.01 C 6.4 km/h
48 16-01-2022 03:55:00 1.9 C 5.13 g/m*3 1.9 C 4.8 km/h
49 16-01-2022 04:00:00 1.9 C 5.13 g/m*3 1.9 C 1.6 km/h
50 16-01-2022 04:05:00 1.9 C 5.13 g/m*3 0.01 C 6.4 km/h
Sensor: Nr:Datum:Temp:Abs-Feuchte:Windchill:Wind:
Aussen-T/F 51 16-01-2022 04:10:00 1.9 C 5.19 g/m*3 -0.54 C 8.1 km/h
52 16-01-2022 04:15:00 1.9 C 5.19 g/m*3 0.01 C 6.4 km/h
53 16-01-2022 04:20:00 1.9 C 5.19 g/m*3 0.01 C 6.4 km/h
54 16-01-2022 04:25:00 1.9 C 5.19 g/m*3 1.9 C 4.8 km/h
55 16-01-2022 04:30:00 1.9 C 5.19 g/m*3 -0.54 C 8.1 km/h
56 16-01-2022 04:35:00 1.9 C 5.19 g/m*3 0.01 C 6.4 km/h
57 16-01-2022 04:40:00 1.9 C 5.13 g/m*3 -0.54 C 8.1 km/h
58 16-01-2022 04:45:00 1.9 C 5.13 g/m*3 1.9 C 4.8 km/h
59 16-01-2022 04:50:00 1.9 C 5.13 g/m*3 -0.54 C 8.1 km/h
60 16-01-2022 04:55:00 1.9 C 5.13 g/m*3 -0.54 C 8.1 km/h
61 16-01-2022 05:00:00 1.9 C 5.08 g/m*3 0.01 C 6.4 km/h
62 16-01-2022 05:05:00 1.9 C 5.08 g/m*3 -0.54 C 8.1 km/h
63 16-01-2022 05:10:00 1.9 C 5.08 g/m*3 -0.97 C 9.7 km/h
64 16-01-2022 05:15:00 1.9 C 5.08 g/m*3 -0.54 C 8.1 km/h
65 16-01-2022 05:20:00 1.9 C 5.08 g/m*3 -0.97 C 9.7 km/h
66 16-01-2022 05:25:00 1.9 C 5.08 g/m*3 -0.97 C 9.7 km/h
67 16-01-2022 05:30:00 1.9 C 5.08 g/m*3 -0.97 C 9.7 km/h
68 16-01-2022 05:35:00 1.9 C 5.08 g/m*3 -1.68 C 12.9 km/h
69 16-01-2022 05:40:00 2 C 5.11 g/m*3 -1.56 C 12.9 km/h
70 16-01-2022 05:45:00 2 C 5.11 g/m*3 -0.85 C 9.7 km/h
71 16-01-2022 05:50:00 2 C 5.11 g/m*3 -1.56 C 12.9 km/h
72 16-01-2022 05:55:00 2 C 5.06 g/m*3 -0.42 C 8.1 km/h
73 16-01-2022 06:00:00 1.9 C 5.02 g/m*3 -0.54 C 8.1 km/h
74 16-01-2022 06:05:00 1.9 C 5.02 g/m*3 1.9 C 4.8 km/h
75 16-01-2022 06:10:00 1.9 C 5.02 g/m*3 -0.54 C 8.1 km/h
Sensor: Nr:Datum:Temp:Abs-Feuchte:Windchill:Wind:
Aussen-T/F 76 16-01-2022 06:15:00 1.9 C 5.02 g/m*3 -0.54 C 8.1 km/h
77 16-01-2022 06:20:00 1.9 C 5.02 g/m*3 -0.54 C 8.1 km/h
78 16-01-2022 06:25:00 1.9 C 5.02 g/m*3 -0.97 C 9.7 km/h
79 16-01-2022 06:30:00 1.9 C 5.02 g/m*3 -0.97 C 9.7 km/h
80 16-01-2022 06:35:00 1.9 C 5.02 g/m*3 -0.54 C 8.1 km/h
81 16-01-2022 06:40:00 1.9 C 5.02 g/m*3 -1.98 C 14.5 km/h
82 16-01-2022 06:45:00 1.9 C 5.02 g/m*3 -0.54 C 8.1 km/h
83 16-01-2022 06:50:00 2 C 5.06 g/m*3 -1.56 C 12.9 km/h
84 16-01-2022 06:55:00 2 C 5.06 g/m*3 -1.23 C 11.3 km/h
85 16-01-2022 07:00:00 2 C 5.06 g/m*3 -0.42 C 8.1 km/h
86 16-01-2022 07:05:00 2.1 C 5.09 g/m*3 -1.44 C 12.9 km/h
87 16-01-2022 07:10:00 2.1 C 5.09 g/m*3 0.24 C 6.4 km/h
88 16-01-2022 07:15:00 2.1 C 5.09 g/m*3 -0.73 C 9.7 km/h
89 16-01-2022 07:20:00 2 C 5.06 g/m*3 -0.42 C 8.1 km/h
90 16-01-2022 07:25:00 2.1 C 5.09 g/m*3 0.24 C 6.4 km/h
91 16-01-2022 07:30:00 2.1 C 5.09 g/m*3 -0.3 C 8.1 km/h
92 16-01-2022 07:35:00 2.1 C 5.09 g/m*3 -0.3 C 8.1 km/h
93 16-01-2022 07:40:00 2.1 C 5.09 g/m*3 2.1 C 4.8 km/h
94 16-01-2022 07:45:00 2.1 C 5.09 g/m*3 -1.74 C 14.5 km/h
95 16-01-2022 07:50:00 2.1 C 5.09 g/m*3 -1.74 C 14.5 km/h
96 16-01-2022 07:55:00 2.1 C 5.09 g/m*3 -1.11 C 11.3 km/h
97 16-01-2022 08:00:00 2.1 C 5.09 g/m*3 -1.74 C 14.5 km/h
98 16-01-2022 08:05:00 2.1 C 5.09 g/m*3 -0.3 C 8.1 km/h
99 16-01-2022 08:10:00 2.1 C 5.09 g/m*3 -1.11 C 11.3 km/h
100 16-01-2022 08:15:00 2.2 C 5.13 g/m*3 -1.32 C 12.9 km/h
Sensor: Nr:Datum:Temp:Abs-Feuchte:Windchill:Wind:
Aussen-T/F 101 16-01-2022 08:20:00 2.2 C 5.13 g/m*3 -0.18 C 8.1 km/h
102 16-01-2022 08:25:00 2.2 C 5.13 g/m*3 -0.18 C 8.1 km/h
103 16-01-2022 08:30:00 2.2 C 5.13 g/m*3 -0.18 C 8.1 km/h
104 16-01-2022 08:35:00 2.2 C 5.13 g/m*3 -0.18 C 8.1 km/h
105 16-01-2022 08:40:00 2.2 C 5.13 g/m*3 -0.99 C 11.3 km/h
106 16-01-2022 08:45:00 2.2 C 5.13 g/m*3 -1.32 C 12.9 km/h
107 16-01-2022 08:50:00 2.3 C 5.16 g/m*3 -1.76 C 16.1 km/h
108 16-01-2022 08:55:00 2.4 C 5.14 g/m*3 -1.64 C 16.1 km/h
109 16-01-2022 09:00:00 2.6 C 5.15 g/m*3 -1.64 C 17.7 km/h
110 16-01-2022 09:05:00 2.6 C 5.15 g/m*3 -0.83 C 12.9 km/h
111 16-01-2022 09:10:00 2.7 C 5.19 g/m*3 -0.71 C 12.9 km/h
112 16-01-2022 09:15:00 2.7 C 5.19 g/m*3 -0.02 C 9.7 km/h
113 16-01-2022 09:20:00 2.7 C 5.19 g/m*3 -0.02 C 9.7 km/h
114 16-01-2022 09:25:00 2.7 C 5.19 g/m*3 -0.71 C 12.9 km/h
115 16-01-2022 09:30:00 2.7 C 5.19 g/m*3 -0.38 C 11.3 km/h
116 16-01-2022 09:35:00 2.7 C 5.19 g/m*3 -0.71 C 12.9 km/h
117 16-01-2022 09:40:00 2.7 C 5.24 g/m*3 -0.71 C 12.9 km/h
118 16-01-2022 09:45:00 2.8 C 5.28 g/m*3 -0.88 C 14.5 km/h
119 16-01-2022 09:50:00 2.8 C 5.28 g/m*3 -0.59 C 12.9 km/h
120 16-01-2022 09:55:00 2.8 C 5.28 g/m*3 -0.88 C 14.5 km/h
121 16-01-2022 10:00:00 2.8 C 5.28 g/m*3 -0.59 C 12.9 km/h
122 16-01-2022 10:05:00 2.8 C 5.28 g/m*3 -1.14 C 16.1 km/h
123 16-01-2022 10:10:00 2.8 C 5.28 g/m*3 -0.26 C 11.3 km/h
124 16-01-2022 10:15:00 2.8 C 5.34 g/m*3 -1.14 C 16.1 km/h
125 16-01-2022 10:20:00 2.8 C 5.34 g/m*3 -0.59 C 12.9 km/h
Sensor: Nr:Datum:Temp:Abs-Feuchte:Windchill:Wind:
Aussen-T/F 126 16-01-2022 10:25:00 2.7 C 5.3 g/m*3 -0.38 C 11.3 km/h
127 16-01-2022 10:30:00 2.7 C 5.3 g/m*3 -0.71 C 12.9 km/h
128 16-01-2022 10:35:00 2.7 C 5.3 g/m*3 -1 C 14.5 km/h
129 16-01-2022 10:40:00 2.8 C 5.34 g/m*3 -0.59 C 12.9 km/h
130 16-01-2022 10:45:00 2.8 C 5.34 g/m*3 -0.88 C 14.5 km/h
131 16-01-2022 10:50:00 2.8 C 5.34 g/m*3 -1.14 C 16.1 km/h
132 16-01-2022 10:55:00 2.9 C 5.37 g/m*3 -1.49 C 19.3 km/h
133 16-01-2022 11:00:00 2.9 C 5.37 g/m*3 -1.49 C 19.3 km/h
134 16-01-2022 11:05:00 2.9 C 5.37 g/m*3 -1.26 C 17.7 km/h
135 16-01-2022 11:10:00 2.9 C 5.37 g/m*3 -1.26 C 17.7 km/h
136 16-01-2022 11:15:00 2.9 C 5.43 g/m*3 -1.26 C 17.7 km/h
137 16-01-2022 11:20:00 2.9 C 5.43 g/m*3 -0.14 C 11.3 km/h
138 16-01-2022 11:25:00 3 C 5.47 g/m*3 -0.63 C 14.5 km/h
139 16-01-2022 11:30:00 3 C 5.47 g/m*3 -1.14 C 17.7 km/h
140 16-01-2022 11:35:00 3.1 C 5.45 g/m*3 -0.51 C 14.5 km/h
141 16-01-2022 11:40:00 3.2 C 5.48 g/m*3 -0.1 C 12.9 km/h
142 16-01-2022 11:45:00 3.2 C 5.48 g/m*3 -0.65 C 16.1 km/h
143 16-01-2022 11:50:00 3.3 C 5.52 g/m*3 0.34 C 11.3 km/h
144 16-01-2022 11:55:00 3.4 C 5.5 g/m*3 -0.4 C 16.1 km/h
145 16-01-2022 12:00:00 3.4 C 5.5 g/m*3 -0.4 C 16.1 km/h
146 16-01-2022 12:05:00 3.6 C 5.57 g/m*3 0.11 C 14.5 km/h
147 16-01-2022 12:10:00 3.7 C 5.61 g/m*3 0.23 C 14.5 km/h
148 16-01-2022 12:15:00 3.7 C 5.55 g/m*3 -0.26 C 17.7 km/h
149 16-01-2022 12:20:00 3.7 C 5.55 g/m*3 -0.26 C 17.7 km/h
150 16-01-2022 12:25:00 3.8 C 5.58 g/m*3 -0.93 C 24.1 km/h
Sensor: Nr:Datum:Temp:Abs-Feuchte:Windchill:Wind:
Aussen-T/F 151 16-01-2022 12:30:00 3.8 C 5.58 g/m*3 0.1 C 16.1 km/h
152 16-01-2022 12:35:00 3.8 C 5.58 g/m*3 -0.75 C 22.5 km/h
153 16-01-2022 12:40:00 3.8 C 5.58 g/m*3 0.94 C 11.3 km/h
154 16-01-2022 12:45:00 3.9 C 5.68 g/m*3 1.06 C 11.3 km/h
155 16-01-2022 12:50:00 3.9 C 5.68 g/m*3 0.75 C 12.9 km/h
156 16-01-2022 12:55:00 3.9 C 5.68 g/m*3 0.22 C 16.1 km/h
157 16-01-2022 13:00:00 3.8 C 5.65 g/m*3 0.35 C 14.5 km/h
158 16-01-2022 13:05:00 3.8 C 5.65 g/m*3 0.35 C 14.5 km/h
159 16-01-2022 13:10:00 3.7 C 5.61 g/m*3 -0.48 C 19.3 km/h
160 16-01-2022 13:15:00 3.6 C 5.57 g/m*3 -0.39 C 17.7 km/h
161 16-01-2022 13:20:00 3.5 C 5.6 g/m*3 -0.28 C 16.1 km/h
162 16-01-2022 13:25:00 3.4 C 5.56 g/m*3 -0.14 C 14.5 km/h
163 16-01-2022 13:30:00 3.4 C 5.62 g/m*3 -0.14 C 14.5 km/h
164 16-01-2022 13:35:00 3.3 C 5.58 g/m*3 -0.52 C 16.1 km/h
165 16-01-2022 13:40:00 3.2 C 5.54 g/m*3 -0.65 C 16.1 km/h
166 16-01-2022 13:45:00 3.1 C 5.51 g/m*3 -0.77 C 16.1 km/h
167 16-01-2022 13:50:00 2.8 C 5.4 g/m*3 -0.88 C 14.5 km/h
168 16-01-2022 13:55:00 2.7 C 5.42 g/m*3 -1.74 C 19.3 km/h
169 16-01-2022 14:00:00 2.6 C 5.38 g/m*3 -1.39 C 16.1 km/h
170 16-01-2022 14:05:00 2.5 C 5.4 g/m*3 -1.76 C 17.7 km/h
171 16-01-2022 14:10:00 2.5 C 5.4 g/m*3 -1.76 C 17.7 km/h
172 16-01-2022 14:15:00 2.5 C 5.4 g/m*3 -1.52 C 16.1 km/h
173 16-01-2022 14:20:00 2.6 C 5.44 g/m*3 -1.64 C 17.7 km/h
174 16-01-2022 14:25:00 2.7 C 5.48 g/m*3 -1.95 C 20.9 km/h
175 16-01-2022 14:30:00 2.7 C 5.48 g/m*3 -2.15 C 22.5 km/h
Sensor: Nr:Datum:Temp:Abs-Feuchte:Windchill:Wind:
Aussen-T/F 176 16-01-2022 14:35:00 2.8 C 5.51 g/m*3 -1.39 C 17.7 km/h
177 16-01-2022 14:40:00 2.8 C 5.51 g/m*3 -1.14 C 16.1 km/h
178 16-01-2022 14:45:00 2.8 C 5.51 g/m*3 -1.61 C 19.3 km/h
179 16-01-2022 14:50:00 2.7 C 5.48 g/m*3 -1.74 C 19.3 km/h
180 16-01-2022 14:55:00 2.8 C 5.51 g/m*3 -2.21 C 24.1 km/h
181 16-01-2022 15:00:00 2.7 C 5.48 g/m*3 -1.51 C 17.7 km/h
182 16-01-2022 15:05:00 2.7 C 5.48 g/m*3 -2.52 C 25.7 km/h
183 16-01-2022 15:10:00 2.7 C 5.48 g/m*3 -1 C 14.5 km/h
184 16-01-2022 15:15:00 2.7 C 5.48 g/m*3 -1.74 C 19.3 km/h
185 16-01-2022 15:20:00 2.7 C 5.48 g/m*3 -1.74 C 19.3 km/h
186 16-01-2022 15:25:00 2.7 C 5.48 g/m*3 -1.27 C 16.1 km/h
187 16-01-2022 15:30:00 2.7 C 5.48 g/m*3 -1.51 C 17.7 km/h
188 16-01-2022 15:35:00 2.7 C 5.48 g/m*3 -1.51 C 17.7 km/h
189 16-01-2022 15:40:00 2.6 C 5.44 g/m*3 -1.87 C 19.3 km/h
190 16-01-2022 15:45:00 2.6 C 5.44 g/m*3 -1.39 C 16.1 km/h
191 16-01-2022 15:50:00 2.6 C 5.44 g/m*3 -1.64 C 17.7 km/h
192 16-01-2022 15:55:00 2.5 C 5.4 g/m*3 -0.62 C 11.3 km/h
193 16-01-2022 16:00:00 2.5 C 5.46 g/m*3 -1.25 C 14.5 km/h
194 16-01-2022 16:05:00 2.6 C 5.5 g/m*3 -1.12 C 14.5 km/h
195 16-01-2022 16:10:00 2.6 C 5.5 g/m*3 -1.12 C 14.5 km/h
196 16-01-2022 16:15:00 2.7 C 5.54 g/m*3 -1 C 14.5 km/h
197 16-01-2022 16:20:00 2.7 C 5.54 g/m*3 -0.38 C 11.3 km/h
198 16-01-2022 16:25:00 2.7 C 5.54 g/m*3 -0.71 C 12.9 km/h
199 16-01-2022 16:30:00 2.7 C 5.54 g/m*3 -1.27 C 16.1 km/h
200 16-01-2022 16:35:00 2.7 C 5.54 g/m*3 -0.71 C 12.9 km/h
Sensor: Nr:Datum:Temp:Abs-Feuchte:Windchill:Wind:
Aussen-T/F 201 16-01-2022 16:40:00 2.7 C 5.54 g/m*3 -1 C 14.5 km/h
202 16-01-2022 16:45:00 2.6 C 5.5 g/m*3 -1.87 C 19.3 km/h
203 16-01-2022 16:50:00 2.7 C 5.54 g/m*3 -0.38 C 11.3 km/h
204 16-01-2022 16:55:00 2.7 C 5.54 g/m*3 -1 C 14.5 km/h
205 16-01-2022 17:00:00 2.7 C 5.54 g/m*3 -1.27 C 16.1 km/h
206 16-01-2022 17:05:00 2.8 C 5.57 g/m*3 -0.26 C 11.3 km/h
207 16-01-2022 17:10:00 2.8 C 5.57 g/m*3 -1.83 C 20.9 km/h
208 16-01-2022 17:15:00 2.8 C 5.57 g/m*3 -1.61 C 19.3 km/h
209 16-01-2022 17:20:00 2.9 C 5.61 g/m*3 -0.46 C 12.9 km/h
210 16-01-2022 17:25:00 2.9 C 5.61 g/m*3 -1.26 C 17.7 km/h
211 16-01-2022 17:30:00 3 C 5.59 g/m*3 -1.57 C 20.9 km/h
212 16-01-2022 17:35:00 3 C 5.59 g/m*3 -0.63 C 14.5 km/h
213 16-01-2022 17:40:00 3.1 C 5.63 g/m*3 -0.77 C 16.1 km/h
214 16-01-2022 17:45:00 3.1 C 5.63 g/m*3 -0.51 C 14.5 km/h
215 16-01-2022 17:50:00 3.1 C 5.63 g/m*3 -0.51 C 14.5 km/h
216 16-01-2022 17:55:00 3.1 C 5.63 g/m*3 -0.77 C 16.1 km/h
217 16-01-2022 18:00:00 3.1 C 5.63 g/m*3 -1.24 C 19.3 km/h
218 16-01-2022 18:05:00 3.1 C 5.63 g/m*3 -1.24 C 19.3 km/h
219 16-01-2022 18:10:00 3.1 C 5.63 g/m*3 -0.51 C 14.5 km/h
220 16-01-2022 18:15:00 3.2 C 5.66 g/m*3 -0.89 C 17.7 km/h
221 16-01-2022 18:20:00 3.2 C 5.66 g/m*3 -0.65 C 16.1 km/h
222 16-01-2022 18:25:00 3.2 C 5.66 g/m*3 -0.39 C 14.5 km/h
223 16-01-2022 18:30:00 3.2 C 5.66 g/m*3 -0.39 C 14.5 km/h
224 16-01-2022 18:35:00 3.2 C 5.66 g/m*3 -0.65 C 16.1 km/h
225 16-01-2022 18:40:00 3.2 C 5.66 g/m*3 -0.1 C 12.9 km/h
Sensor: Nr:Datum:Temp:Abs-Feuchte:Windchill:Wind:
Aussen-T/F 226 16-01-2022 18:45:00 3.2 C 5.66 g/m*3 -0.39 C 14.5 km/h
227 16-01-2022 18:50:00 3.3 C 5.7 g/m*3 0.34 C 11.3 km/h
228 16-01-2022 18:55:00 3.3 C 5.7 g/m*3 -0.99 C 19.3 km/h
229 16-01-2022 19:00:00 3.3 C 5.7 g/m*3 -0.26 C 14.5 km/h
230 16-01-2022 19:05:00 3.3 C 5.7 g/m*3 1.11 C 8.1 km/h
231 16-01-2022 19:10:00 3.3 C 5.7 g/m*3 0.02 C 12.9 km/h
232 16-01-2022 19:15:00 3.3 C 5.7 g/m*3 -0.99 C 19.3 km/h
233 16-01-2022 19:20:00 3.3 C 5.7 g/m*3 0.02 C 12.9 km/h
234 16-01-2022 19:25:00 3.3 C 5.7 g/m*3 -0.26 C 14.5 km/h
235 16-01-2022 19:30:00 3.3 C 5.7 g/m*3 -1.39 C 22.5 km/h
236 16-01-2022 19:35:00 3.3 C 5.7 g/m*3 0.02 C 12.9 km/h
237 16-01-2022 19:40:00 3.3 C 5.64 g/m*3 -0.26 C 14.5 km/h
238 16-01-2022 19:45:00 3.3 C 5.64 g/m*3 0.34 C 11.3 km/h
239 16-01-2022 19:50:00 3.3 C 5.64 g/m*3 -0.26 C 14.5 km/h
240 16-01-2022 19:55:00 3.3 C 5.64 g/m*3 0.34 C 11.3 km/h
241 16-01-2022 20:00:00 3.3 C 5.64 g/m*3 -0.76 C 17.7 km/h
242 16-01-2022 20:05:00 3.3 C 5.64 g/m*3 0.34 C 11.3 km/h
243 16-01-2022 20:10:00 3.3 C 5.64 g/m*3 -0.52 C 16.1 km/h
244 16-01-2022 20:15:00 3.3 C 5.64 g/m*3 0.34 C 11.3 km/h
245 16-01-2022 20:20:00 3.3 C 5.64 g/m*3 -0.52 C 16.1 km/h
246 16-01-2022 20:25:00 3.3 C 5.64 g/m*3 -0.52 C 16.1 km/h
247 16-01-2022 20:30:00 3.3 C 5.64 g/m*3 -0.52 C 16.1 km/h
248 16-01-2022 20:35:00 3.3 C 5.64 g/m*3 -0.26 C 14.5 km/h
249 16-01-2022 20:40:00 3.3 C 5.64 g/m*3 -0.26 C 14.5 km/h
250 16-01-2022 20:45:00 3.4 C 5.68 g/m*3 -0.4 C 16.1 km/h
Sensor: Nr:Datum:Temp:Abs-Feuchte:Windchill:Wind:
Aussen-T/F 251 16-01-2022 20:50:00 3.4 C 5.62 g/m*3 -0.4 C 16.1 km/h
252 16-01-2022 20:55:00 3.3 C 5.58 g/m*3 -0.26 C 14.5 km/h
253 16-01-2022 21:00:00 3.3 C 5.58 g/m*3 -0.76 C 17.7 km/h
254 16-01-2022 21:05:00 3.4 C 5.62 g/m*3 -0.4 C 16.1 km/h
255 16-01-2022 21:10:00 3.4 C 5.62 g/m*3 -0.14 C 14.5 km/h
256 16-01-2022 21:15:00 3.4 C 5.62 g/m*3 -1.07 C 20.9 km/h
257 16-01-2022 21:20:00 3.4 C 5.62 g/m*3 -0.4 C 16.1 km/h
258 16-01-2022 21:25:00 3.5 C 5.66 g/m*3 -0.94 C 20.9 km/h
259 16-01-2022 21:30:00 3.6 C 5.69 g/m*3 -0.39 C 17.7 km/h
260 16-01-2022 21:35:00 3.6 C 5.69 g/m*3 -0.61 C 19.3 km/h
261 16-01-2022 21:40:00 3.5 C 5.66 g/m*3 -0.51 C 17.7 km/h
262 16-01-2022 21:45:00 3.5 C 5.66 g/m*3 -0.51 C 17.7 km/h
263 16-01-2022 21:50:00 3.5 C 5.72 g/m*3 -0.73 C 19.3 km/h
264 16-01-2022 21:55:00 3.4 C 5.68 g/m*3 0.14 C 12.9 km/h
265 16-01-2022 22:00:00 3.4 C 5.68 g/m*3 -0.86 C 19.3 km/h
266 16-01-2022 22:05:00 3.4 C 5.68 g/m*3 -0.4 C 16.1 km/h
267 16-01-2022 22:10:00 3.4 C 5.68 g/m*3 -0.86 C 19.3 km/h
268 16-01-2022 22:15:00 3.4 C 5.68 g/m*3 -1.44 C 24.1 km/h
269 16-01-2022 22:20:00 3.3 C 5.64 g/m*3 -0.76 C 17.7 km/h
270 16-01-2022 22:25:00 3.3 C 5.64 g/m*3 -0.26 C 14.5 km/h
271 16-01-2022 22:30:00 3.3 C 5.64 g/m*3 -1.19 C 20.9 km/h
272 16-01-2022 22:35:00 3.3 C 5.64 g/m*3 -0.52 C 16.1 km/h
273 16-01-2022 22:40:00 3.3 C 5.64 g/m*3 -0.26 C 14.5 km/h
274 16-01-2022 22:45:00 3.3 C 5.64 g/m*3 -0.76 C 17.7 km/h
275 16-01-2022 22:50:00 3.3 C 5.64 g/m*3 -0.52 C 16.1 km/h
Sensor: Nr:Datum:Temp:Abs-Feuchte:Windchill:Wind:
Aussen-T/F 276 16-01-2022 22:55:00 3.3 C 5.64 g/m*3 -0.26 C 14.5 km/h
277 16-01-2022 23:00:00 3.3 C 5.64 g/m*3 -0.26 C 14.5 km/h
278 16-01-2022 23:05:00 3.3 C 5.64 g/m*3 -0.26 C 14.5 km/h
279 16-01-2022 23:10:00 3.3 C 5.64 g/m*3 0.02 C 12.9 km/h
280 16-01-2022 23:15:00 3.3 C 5.64 g/m*3 -0.26 C 14.5 km/h
281 16-01-2022 23:20:00 3.3 C 5.64 g/m*3 -0.76 C 17.7 km/h
282 16-01-2022 23:25:00 3.3 C 5.64 g/m*3 -0.52 C 16.1 km/h
283 16-01-2022 23:30:00 3.3 C 5.64 g/m*3 -0.26 C 14.5 km/h
284 16-01-2022 23:35:00 3.3 C 5.64 g/m*3 0.02 C 12.9 km/h
285 16-01-2022 23:40:00 3.3 C 5.64 g/m*3 -1.19 C 20.9 km/h
286 16-01-2022 23:45:00 3.3 C 5.64 g/m*3 -1.19 C 20.9 km/h
287 16-01-2022 23:50:00 3.3 C 5.64 g/m*3 -0.26 C 14.5 km/h
288 16-01-2022 23:55:00 3.2 C 5.6 g/m*3 -1.51 C 22.5 km/h

Legende:
   Min
   Max


Maximal/Minimal-Werte vom 16.01.2022 - 16.01.2022

Sensor Min Max Avg
Temp
(Aussen-T/F)
1.9 °C
16-01-2022  03:35:00
3.9 °C
16-01-2022  12:45:00
2.73 °C
Abs-Feuchte
(Aussen-T/F)
5.02 g/m*3
16-01-2022  06:00:00
5.72 g/m*3
16-01-2022  21:50:00
5.4 g/m*3
Windchill
(Aussen-T/F)
-2.52 C
16-01-2022  15:05:00
2.5 C
16-01-2022  00:00:00
-0.25 C

Die Daten stammen von einer Davis Vantage Pro 2 Wetter-Station und werden unter Linux mit der Software wview2wettercgi und aufbereitet. Alle Angaben erfolgen ohne Gewähr für ihre Vollständigkeit oder Richtigkeit.
Kontakt: Rainer Krienke krienke@uni-koblenz.de . Meine Webseiten an der Uni Koblenz oder privat.
Version: $Revision: 0.78 $